sensor_id;sensor_type;location;lat;lon;timestamp;P1;durP1;ratioP1;P2;durP2;ratioP2
1414;SDS011;702;49.466;11.086;2022-12-11T00:00:00;32.50;;;18.73;;
1414;SDS011;702;49.466;11.086;2022-12-11T00:02:30;30.30;;;19.10;;
1414;SDS011;702;49.466;11.086;2022-12-11T00:04:57;30.73;;;20.03;;
1414;SDS011;702;49.466;11.086;2022-12-11T00:07:24;31.43;;;19.30;;
1414;SDS011;702;49.466;11.086;2022-12-11T00:09:53;29.27;;;18.60;;
1414;SDS011;702;49.466;11.086;2022-12-11T00:12:20;31.37;;;19.77;;
1414;SDS011;702;49.466;11.086;2022-12-11T00:14:47;34.60;;;18.60;;
1414;SDS011;702;49.466;11.086;2022-12-11T00:17:14;36.03;;;19.77;;
1414;SDS011;702;49.466;11.086;2022-12-11T00:19:42;29.70;;;19.47;;
1414;SDS011;702;49.466;11.086;2022-12-11T00:22:09;26.00;;;18.30;;
1414;SDS011;702;49.466;11.086;2022-12-11T00:24:36;32.17;;;20.07;;
1414;SDS011;702;49.466;11.086;2022-12-11T00:27:05;29.27;;;19.17;;
1414;SDS011;702;49.466;11.086;2022-12-11T00:29:32;27.53;;;19.07;;
1414;SDS011;702;49.466;11.086;2022-12-11T00:31:59;32.53;;;19.30;;
1414;SDS011;702;49.466;11.086;2022-12-11T00:34:27;29.77;;;18.90;;
1414;SDS011;702;49.466;11.086;2022-12-11T00:36:54;30.10;;;18.00;;
1414;SDS011;702;49.466;11.086;2022-12-11T00:39:23;28.07;;;18.07;;
1414;SDS011;702;49.466;11.086;2022-12-11T00:41:50;30.30;;;18.37;;
1414;SDS011;702;49.466;11.086;2022-12-11T00:44:19;28.83;;;18.40;;
1414;SDS011;702;49.466;11.086;2022-12-11T00:46:46;31.40;;;18.40;;
1414;SDS011;702;49.466;11.086;2022-12-11T00:49:13;28.10;;;18.53;;
1414;SDS011;702;49.466;11.086;2022-12-11T00:51:41;30.43;;;18.73;;
1414;SDS011;702;49.466;11.086;2022-12-11T00:54:08;29.30;;;18.30;;
1414;SDS011;702;49.466;11.086;2022-12-11T00:56:35;26.87;;;18.00;;
1414;SDS011;702;49.466;11.086;2022-12-11T00:59:02;28.10;;;18.40;;
1414;SDS011;702;49.466;11.086;2022-12-11T01:01:31;26.80;;;18.87;;
1414;SDS011;702;49.466;11.086;2022-12-11T01:03:58;30.93;;;19.90;;
1414;SDS011;702;49.466;11.086;2022-12-11T01:06:26;31.47;;;20.07;;
1414;SDS011;702;49.466;11.086;2022-12-11T01:08:54;26.40;;;18.57;;
1414;SDS011;702;49.466;11.086;2022-12-11T01:11:36;30.20;;;18.53;;
1414;SDS011;702;49.466;11.086;2022-12-11T01:14:04;31.37;;;18.27;;
1414;SDS011;702;49.466;11.086;2022-12-11T01:16:33;28.23;;;18.07;;
1414;SDS011;702;49.466;11.086;2022-12-11T01:19:00;31.63;;;20.47;;
1414;SDS011;702;49.466;11.086;2022-12-11T01:21:28;28.77;;;18.93;;
1414;SDS011;702;49.466;11.086;2022-12-11T01:23:55;34.73;;;20.33;;
1414;SDS011;702;49.466;11.086;2022-12-11T01:26:23;29.23;;;19.40;;
1414;SDS011;702;49.466;11.086;2022-12-11T01:28:50;26.93;;;17.63;;
1414;SDS011;702;49.466;11.086;2022-12-11T01:31:18;30.63;;;18.67;;
1414;SDS011;702;49.466;11.086;2022-12-11T01:33:49;30.97;;;18.90;;
1414;SDS011;702;49.466;11.086;2022-12-11T01:36:19;31.60;;;20.13;;
1414;SDS011;702;49.466;11.086;2022-12-11T01:38:48;27.37;;;18.30;;
1414;SDS011;702;49.466;11.086;2022-12-11T01:41:17;28.77;;;19.03;;
1414;SDS011;702;49.466;11.086;2022-12-11T01:43:55;34.17;;;20.50;;
1414;SDS011;702;49.466;11.086;2022-12-11T01:46:24;29.07;;;18.33;;
1414;SDS011;702;49.466;11.086;2022-12-11T01:48:53;31.20;;;19.70;;
1414;SDS011;702;49.466;11.086;2022-12-11T01:51:21;31.20;;;19.73;;
1414;SDS011;702;49.466;11.086;2022-12-11T01:53:50;26.93;;;19.70;;
1414;SDS011;702;49.466;11.086;2022-12-11T01:56:22;32.80;;;19.80;;
1414;SDS011;702;49.466;11.086;2022-12-11T01:58:51;32.10;;;20.43;;
1414;SDS011;702;49.466;11.086;2022-12-11T02:01:24;28.40;;;19.03;;
1414;SDS011;702;49.466;11.086;2022-12-11T02:03:58;33.07;;;20.40;;
1414;SDS011;702;49.466;11.086;2022-12-11T02:06:29;30.53;;;19.10;;
1414;SDS011;702;49.466;11.086;2022-12-11T02:08:58;32.40;;;20.03;;
1414;SDS011;702;49.466;11.086;2022-12-11T02:11:28;37.87;;;19.80;;
1414;SDS011;702;49.466;11.086;2022-12-11T02:14:07;37.10;;;20.70;;
1414;SDS011;702;49.466;11.086;2022-12-11T02:16:45;31.57;;;19.70;;
1414;SDS011;702;49.466;11.086;2022-12-11T02:19:25;30.67;;;18.37;;
1414;SDS011;702;49.466;11.086;2022-12-11T02:22:10;30.27;;;19.30;;
1414;SDS011;702;49.466;11.086;2022-12-11T02:24:48;35.27;;;20.87;;
1414;SDS011;702;49.466;11.086;2022-12-11T02:27:29;31.10;;;19.30;;
1414;SDS011;702;49.466;11.086;2022-12-11T02:30:04;31.33;;;20.90;;
1414;SDS011;702;49.466;11.086;2022-12-11T02:32:35;34.60;;;20.27;;
1414;SDS011;702;49.466;11.086;2022-12-11T02:35:08;35.83;;;20.00;;
1414;SDS011;702;49.466;11.086;2022-12-11T02:37:42;32.50;;;20.77;;
1414;SDS011;702;49.466;11.086;2022-12-11T02:40:13;37.80;;;20.50;;
1414;SDS011;702;49.466;11.086;2022-12-11T02:42:46;32.90;;;19.47;;
1414;SDS011;702;49.466;11.086;2022-12-11T02:45:17;30.03;;;19.60;;
1414;SDS011;702;49.466;11.086;2022-12-11T02:47:46;38.17;;;21.57;;
1414;SDS011;702;49.466;11.086;2022-12-11T02:50:15;30.50;;;20.43;;
1414;SDS011;702;49.466;11.086;2022-12-11T02:52:47;36.63;;;20.07;;
1414;SDS011;702;49.466;11.086;2022-12-11T02:55:17;35.00;;;21.20;;
1414;SDS011;702;49.466;11.086;2022-12-11T02:57:46;29.97;;;19.77;;
1414;SDS011;702;49.466;11.086;2022-12-11T03:00:18;37.27;;;20.77;;
1414;SDS011;702;49.466;11.086;2022-12-11T03:02:46;29.47;;;20.20;;
1414;SDS011;702;49.466;11.086;2022-12-11T03:05:14;33.63;;;20.20;;
1414;SDS011;702;49.466;11.086;2022-12-11T03:07:42;35.23;;;19.00;;
1414;SDS011;702;49.466;11.086;2022-12-11T03:10:11;32.90;;;22.30;;
1414;SDS011;702;49.466;11.086;2022-12-11T03:12:45;33.30;;;22.90;;
1414;SDS011;702;49.466;11.086;2022-12-11T03:15:16;29.70;;;19.53;;
1414;SDS011;702;49.466;11.086;2022-12-11T03:17:52;31.70;;;20.00;;
1414;SDS011;702;49.466;11.086;2022-12-11T03:20:31;36.17;;;20.57;;
1414;SDS011;702;49.466;11.086;2022-12-11T03:23:05;33.60;;;20.87;;
1414;SDS011;702;49.466;11.086;2022-12-11T03:25:46;35.27;;;22.23;;
1414;SDS011;702;49.466;11.086;2022-12-11T03:28:20;33.43;;;21.20;;
1414;SDS011;702;49.466;11.086;2022-12-11T03:30:56;32.17;;;20.97;;
1414;SDS011;702;49.466;11.086;2022-12-11T03:33:30;28.97;;;19.03;;
1414;SDS011;702;49.466;11.086;2022-12-11T03:36:02;34.20;;;21.30;;
1414;SDS011;702;49.466;11.086;2022-12-11T03:38:35;33.93;;;21.83;;
1414;SDS011;702;49.466;11.086;2022-12-11T03:41:07;32.40;;;21.03;;
1414;SDS011;702;49.466;11.086;2022-12-11T03:43:37;30.67;;;20.27;;
1414;SDS011;702;49.466;11.086;2022-12-11T03:46:08;30.07;;;19.17;;
1414;SDS011;702;49.466;11.086;2022-12-11T03:48:38;30.43;;;20.10;;
1414;SDS011;702;49.466;11.086;2022-12-11T03:51:08;30.43;;;20.20;;
1414;SDS011;702;49.466;11.086;2022-12-11T03:53:35;29.47;;;18.67;;
1414;SDS011;702;49.466;11.086;2022-12-11T03:56:04;31.20;;;20.77;;
1414;SDS011;702;49.466;11.086;2022-12-11T03:58:34;28.73;;;20.50;;
1414;SDS011;702;49.466;11.086;2022-12-11T04:01:02;28.13;;;19.10;;
1414;SDS011;702;49.466;11.086;2022-12-11T04:03:31;25.10;;;18.53;;
1414;SDS011;702;49.466;11.086;2022-12-11T04:05:58;28.50;;;18.60;;
1414;SDS011;702;49.466;11.086;2022-12-11T04:08:25;30.43;;;19.87;;
1414;SDS011;702;49.466;11.086;2022-12-11T04:10:53;27.57;;;18.70;;
1414;SDS011;702;49.466;11.086;2022-12-11T04:13:34;25.63;;;18.00;;
1414;SDS011;702;49.466;11.086;2022-12-11T04:16:02;27.17;;;18.57;;
1414;SDS011;702;49.466;11.086;2022-12-11T04:18:30;29.93;;;20.00;;
1414;SDS011;702;49.466;11.086;2022-12-11T04:21:15;30.60;;;19.97;;
1414;SDS011;702;49.466;11.086;2022-12-11T04:24:00;26.00;;;17.67;;
1414;SDS011;702;49.466;11.086;2022-12-11T04:26:40;31.33;;;20.57;;
1414;SDS011;702;49.466;11.086;2022-12-11T04:29:08;32.37;;;19.70;;
1414;SDS011;702;49.466;11.086;2022-12-11T04:31:35;31.73;;;19.33;;
1414;SDS011;702;49.466;11.086;2022-12-11T04:34:03;27.20;;;19.43;;
1414;SDS011;702;49.466;11.086;2022-12-11T04:36:31;29.93;;;21.07;;
1414;SDS011;702;49.466;11.086;2022-12-11T04:38:58;30.70;;;19.70;;
1414;SDS011;702;49.466;11.086;2022-12-11T04:41:26;30.10;;;18.57;;
1414;SDS011;702;49.466;11.086;2022-12-11T04:43:54;31.20;;;20.27;;
1414;SDS011;702;49.466;11.086;2022-12-11T04:46:22;29.03;;;19.27;;
1414;SDS011;702;49.466;11.086;2022-12-11T04:48:50;28.60;;;18.23;;
1414;SDS011;702;49.466;11.086;2022-12-11T04:51:20;30.27;;;18.57;;
1414;SDS011;702;49.466;11.086;2022-12-11T04:53:47;29.10;;;18.60;;
1414;SDS011;702;49.466;11.086;2022-12-11T04:56:15;31.30;;;18.73;;
1414;SDS011;702;49.466;11.086;2022-12-11T04:58:42;28.93;;;18.97;;
1414;SDS011;702;49.466;11.086;2022-12-11T05:01:11;31.03;;;19.03;;
1414;SDS011;702;49.466;11.086;2022-12-11T05:03:40;30.27;;;19.03;;
1414;SDS011;702;49.466;11.086;2022-12-11T05:06:08;29.70;;;19.70;;
1414;SDS011;702;49.466;11.086;2022-12-11T05:08:38;34.37;;;20.30;;
1414;SDS011;702;49.466;11.086;2022-12-11T05:11:08;31.30;;;21.00;;
1414;SDS011;702;49.466;11.086;2022-12-11T05:13:37;36.43;;;21.23;;
1414;SDS011;702;49.466;11.086;2022-12-11T05:16:06;30.20;;;19.57;;
1414;SDS011;702;49.466;11.086;2022-12-11T05:18:35;33.40;;;21.67;;
1414;SDS011;702;49.466;11.086;2022-12-11T05:21:03;32.23;;;18.70;;
1414;SDS011;702;49.466;11.086;2022-12-11T05:23:34;32.60;;;19.13;;
1414;SDS011;702;49.466;11.086;2022-12-11T05:26:04;35.00;;;20.97;;
1414;SDS011;702;49.466;11.086;2022-12-11T05:28:35;33.93;;;19.53;;
1414;SDS011;702;49.466;11.086;2022-12-11T05:31:04;35.27;;;21.60;;
1414;SDS011;702;49.466;11.086;2022-12-11T05:33:34;35.80;;;21.00;;
1414;SDS011;702;49.466;11.086;2022-12-11T05:36:01;36.73;;;20.70;;
1414;SDS011;702;49.466;11.086;2022-12-11T05:38:30;31.30;;;19.73;;
1414;SDS011;702;49.466;11.086;2022-12-11T05:40:58;31.53;;;20.23;;
1414;SDS011;702;49.466;11.086;2022-12-11T05:43:28;33.00;;;21.30;;
1414;SDS011;702;49.466;11.086;2022-12-11T05:46:03;33.37;;;21.17;;
1414;SDS011;702;49.466;11.086;2022-12-11T05:48:32;34.63;;;21.40;;
1414;SDS011;702;49.466;11.086;2022-12-11T05:51:00;32.50;;;19.93;;
1414;SDS011;702;49.466;11.086;2022-12-11T05:53:28;32.70;;;20.73;;
1414;SDS011;702;49.466;11.086;2022-12-11T05:55:59;38.83;;;22.00;;
1414;SDS011;702;49.466;11.086;2022-12-11T05:58:29;40.37;;;22.97;;
1414;SDS011;702;49.466;11.086;2022-12-11T06:00:57;31.43;;;20.60;;
1414;SDS011;702;49.466;11.086;2022-12-11T06:03:24;34.73;;;22.03;;
1414;SDS011;702;49.466;11.086;2022-12-11T06:05:51;31.47;;;20.73;;
1414;SDS011;702;49.466;11.086;2022-12-11T06:08:18;33.57;;;20.30;;
1414;SDS011;702;49.466;11.086;2022-12-11T06:10:46;32.27;;;20.80;;
1414;SDS011;702;49.466;11.086;2022-12-11T06:13:15;31.43;;;21.17;;
1414;SDS011;702;49.466;11.086;2022-12-11T06:15:44;33.73;;;20.43;;
1414;SDS011;702;49.466;11.086;2022-12-11T06:18:11;33.87;;;20.37;;
1414;SDS011;702;49.466;11.086;2022-12-11T06:20:38;31.60;;;19.70;;
1414;SDS011;702;49.466;11.086;2022-12-11T06:23:05;34.80;;;20.63;;
1414;SDS011;702;49.466;11.086;2022-12-11T06:25:33;29.23;;;19.97;;
1414;SDS011;702;49.466;11.086;2022-12-11T06:28:00;31.13;;;21.00;;
1414;SDS011;702;49.466;11.086;2022-12-11T06:30:28;34.13;;;21.07;;
1414;SDS011;702;49.466;11.086;2022-12-11T06:32:56;42.33;;;22.30;;
1414;SDS011;702;49.466;11.086;2022-12-11T06:35:24;34.00;;;19.43;;
1414;SDS011;702;49.466;11.086;2022-12-11T06:37:51;36.70;;;21.20;;
1414;SDS011;702;49.466;11.086;2022-12-11T06:40:18;30.70;;;19.60;;
1414;SDS011;702;49.466;11.086;2022-12-11T06:42:46;30.57;;;19.43;;
1414;SDS011;702;49.466;11.086;2022-12-11T06:45:13;35.10;;;20.17;;
1414;SDS011;702;49.466;11.086;2022-12-11T06:47:40;28.20;;;17.97;;
1414;SDS011;702;49.466;11.086;2022-12-11T06:50:09;28.27;;;18.77;;
1414;SDS011;702;49.466;11.086;2022-12-11T06:52:37;27.00;;;17.37;;
1414;SDS011;702;49.466;11.086;2022-12-11T06:55:04;26.90;;;17.40;;
1414;SDS011;702;49.466;11.086;2022-12-11T06:57:32;27.70;;;18.13;;
1414;SDS011;702;49.466;11.086;2022-12-11T06:59:59;26.00;;;15.40;;
1414;SDS011;702;49.466;11.086;2022-12-11T07:02:26;28.77;;;16.90;;
1414;SDS011;702;49.466;11.086;2022-12-11T07:04:53;25.63;;;15.53;;
1414;SDS011;702;49.466;11.086;2022-12-11T07:07:22;29.57;;;16.80;;
1414;SDS011;702;49.466;11.086;2022-12-11T07:09:50;26.73;;;16.47;;
1414;SDS011;702;49.466;11.086;2022-12-11T07:12:17;22.63;;;16.30;;
1414;SDS011;702;49.466;11.086;2022-12-11T07:14:44;22.67;;;16.17;;
1414;SDS011;702;49.466;11.086;2022-12-11T07:17:11;23.00;;;16.10;;
1414;SDS011;702;49.466;11.086;2022-12-11T07:19:38;21.80;;;16.07;;
1414;SDS011;702;49.466;11.086;2022-12-11T07:22:05;20.70;;;14.23;;
1414;SDS011;702;49.466;11.086;2022-12-11T07:24:34;24.23;;;16.70;;
1414;SDS011;702;49.466;11.086;2022-12-11T07:27:01;23.10;;;15.53;;
1414;SDS011;702;49.466;11.086;2022-12-11T07:29:30;24.23;;;15.63;;
1414;SDS011;702;49.466;11.086;2022-12-11T07:31:57;25.40;;;15.83;;
1414;SDS011;702;49.466;11.086;2022-12-11T07:34:25;21.73;;;15.70;;
1414;SDS011;702;49.466;11.086;2022-12-11T07:36:52;23.00;;;15.67;;
1414;SDS011;702;49.466;11.086;2022-12-11T07:39:19;27.37;;;17.23;;
1414;SDS011;702;49.466;11.086;2022-12-11T07:41:48;23.43;;;15.40;;
1414;SDS011;702;49.466;11.086;2022-12-11T07:44:15;20.13;;;14.20;;
1414;SDS011;702;49.466;11.086;2022-12-11T07:46:42;25.40;;;15.70;;
1414;SDS011;702;49.466;11.086;2022-12-11T07:49:09;21.23;;;14.63;;
1414;SDS011;702;49.466;11.086;2022-12-11T07:51:37;22.47;;;15.93;;
1414;SDS011;702;49.466;11.086;2022-12-11T07:54:05;25.47;;;17.60;;
1414;SDS011;702;49.466;11.086;2022-12-11T07:56:36;24.53;;;17.20;;
1414;SDS011;702;49.466;11.086;2022-12-11T07:59:05;25.50;;;16.00;;
1414;SDS011;702;49.466;11.086;2022-12-11T08:01:33;25.43;;;17.60;;
1414;SDS011;702;49.466;11.086;2022-12-11T08:04:02;25.60;;;17.47;;
1414;SDS011;702;49.466;11.086;2022-12-11T08:06:31;26.43;;;16.73;;
1414;SDS011;702;49.466;11.086;2022-12-11T08:09:00;26.97;;;19.50;;
1414;SDS011;702;49.466;11.086;2022-12-11T08:11:30;24.03;;;16.53;;
1414;SDS011;702;49.466;11.086;2022-12-11T08:13:58;28.03;;;17.57;;
1414;SDS011;702;49.466;11.086;2022-12-11T08:16:27;24.10;;;16.30;;
1414;SDS011;702;49.466;11.086;2022-12-11T08:18:54;24.50;;;16.97;;
1414;SDS011;702;49.466;11.086;2022-12-11T08:21:25;21.37;;;16.43;;
1414;SDS011;702;49.466;11.086;2022-12-11T08:23:53;21.80;;;15.63;;
1414;SDS011;702;49.466;11.086;2022-12-11T08:26:22;23.27;;;16.80;;
1414;SDS011;702;49.466;11.086;2022-12-11T08:28:51;25.50;;;16.60;;
1414;SDS011;702;49.466;11.086;2022-12-11T08:31:20;22.33;;;16.30;;
1414;SDS011;702;49.466;11.086;2022-12-11T08:33:50;21.70;;;16.20;;
1414;SDS011;702;49.466;11.086;2022-12-11T08:36:18;24.47;;;16.07;;
1414;SDS011;702;49.466;11.086;2022-12-11T08:38:47;22.33;;;16.53;;
1414;SDS011;702;49.466;11.086;2022-12-11T08:41:16;24.20;;;15.43;;
1414;SDS011;702;49.466;11.086;2022-12-11T08:43:45;23.93;;;15.70;;
1414;SDS011;702;49.466;11.086;2022-12-11T08:46:13;18.47;;;14.07;;
1414;SDS011;702;49.466;11.086;2022-12-11T08:48:41;22.03;;;14.90;;
1414;SDS011;702;49.466;11.086;2022-12-11T08:51:11;21.67;;;14.47;;
1414;SDS011;702;49.466;11.086;2022-12-11T08:53:39;24.57;;;16.07;;
1414;SDS011;702;49.466;11.086;2022-12-11T08:56:08;33.60;;;18.23;;
1414;SDS011;702;49.466;11.086;2022-12-11T08:58:37;25.57;;;16.93;;
1414;SDS011;702;49.466;11.086;2022-12-11T09:01:05;22.60;;;15.93;;
1414;SDS011;702;49.466;11.086;2022-12-11T09:03:34;21.50;;;15.23;;
1414;SDS011;702;49.466;11.086;2022-12-11T09:06:03;22.83;;;16.10;;
1414;SDS011;702;49.466;11.086;2022-12-11T09:08:33;20.73;;;15.90;;
1414;SDS011;702;49.466;11.086;2022-12-11T09:11:01;23.47;;;15.17;;
1414;SDS011;702;49.466;11.086;2022-12-11T09:13:29;22.50;;;14.20;;
1414;SDS011;702;49.466;11.086;2022-12-11T09:15:57;20.77;;;13.93;;
1414;SDS011;702;49.466;11.086;2022-12-11T09:18:24;19.80;;;13.83;;
1414;SDS011;702;49.466;11.086;2022-12-11T09:20:58;28.97;;;16.10;;
1414;SDS011;702;49.466;11.086;2022-12-11T09:23:27;20.47;;;15.80;;
1414;SDS011;702;49.466;11.086;2022-12-11T09:25:56;23.67;;;16.60;;
1414;SDS011;702;49.466;11.086;2022-12-11T09:28:24;22.63;;;15.60;;
1414;SDS011;702;49.466;11.086;2022-12-11T09:30:51;26.23;;;17.07;;
1414;SDS011;702;49.466;11.086;2022-12-11T09:33:18;21.60;;;16.90;;
1414;SDS011;702;49.466;11.086;2022-12-11T09:35:45;21.77;;;15.90;;
1414;SDS011;702;49.466;11.086;2022-12-11T09:38:22;26.20;;;16.30;;
1414;SDS011;702;49.466;11.086;2022-12-11T09:40:49;22.90;;;16.40;;
1414;SDS011;702;49.466;11.086;2022-12-11T09:43:20;22.80;;;16.17;;
1414;SDS011;702;49.466;11.086;2022-12-11T09:45:58;23.53;;;15.73;;
1414;SDS011;702;49.466;11.086;2022-12-11T09:48:28;25.67;;;16.60;;
1414;SDS011;702;49.466;11.086;2022-12-11T09:51:00;27.33;;;17.97;;
1414;SDS011;702;49.466;11.086;2022-12-11T09:53:38;22.17;;;18.10;;
1414;SDS011;702;49.466;11.086;2022-12-11T09:56:11;27.30;;;15.50;;
1414;SDS011;702;49.466;11.086;2022-12-11T09:58:49;22.40;;;16.10;;
1414;SDS011;702;49.466;11.086;2022-12-11T10:01:31;20.83;;;15.00;;
1414;SDS011;702;49.466;11.086;2022-12-11T10:04:14;21.80;;;15.27;;
1414;SDS011;702;49.466;11.086;2022-12-11T10:06:59;29.00;;;18.70;;
1414;SDS011;702;49.466;11.086;2022-12-11T10:09:35;23.93;;;16.07;;
1414;SDS011;702;49.466;11.086;2022-12-11T10:12:16;22.57;;;16.40;;
1414;SDS011;702;49.466;11.086;2022-12-11T10:15:03;22.37;;;16.33;;
1414;SDS011;702;49.466;11.086;2022-12-11T10:17:42;21.87;;;15.40;;
1414;SDS011;702;49.466;11.086;2022-12-11T10:20:15;19.97;;;13.60;;
1414;SDS011;702;49.466;11.086;2022-12-11T10:22:48;27.60;;;17.57;;
1414;SDS011;702;49.466;11.086;2022-12-11T10:25:19;20.33;;;14.10;;
1414;SDS011;702;49.466;11.086;2022-12-11T10:27:50;28.63;;;18.23;;
1414;SDS011;702;49.466;11.086;2022-12-11T10:30:20;19.77;;;14.73;;
1414;SDS011;702;49.466;11.086;2022-12-11T10:32:49;20.37;;;13.67;;
1414;SDS011;702;49.466;11.086;2022-12-11T10:35:25;25.10;;;16.67;;
1414;SDS011;702;49.466;11.086;2022-12-11T10:38:00;15.73;;;10.80;;
1414;SDS011;702;49.466;11.086;2022-12-11T10:40:39;18.37;;;12.70;;
1414;SDS011;702;49.466;11.086;2022-12-11T10:43:10;17.53;;;12.33;;
1414;SDS011;702;49.466;11.086;2022-12-11T10:45:39;14.50;;;10.37;;
1414;SDS011;702;49.466;11.086;2022-12-11T10:48:15;18.60;;;13.63;;
1414;SDS011;702;49.466;11.086;2022-12-11T10:50:43;17.60;;;11.77;;
1414;SDS011;702;49.466;11.086;2022-12-11T10:53:23;15.53;;;11.40;;
1414;SDS011;702;49.466;11.086;2022-12-11T10:55:52;19.00;;;13.07;;
1414;SDS011;702;49.466;11.086;2022-12-11T10:58:20;21.50;;;14.00;;
1414;SDS011;702;49.466;11.086;2022-12-11T11:00:59;14.03;;;11.40;;
1414;SDS011;702;49.466;11.086;2022-12-11T11:03:32;17.90;;;12.57;;
1414;SDS011;702;49.466;11.086;2022-12-11T11:06:05;19.00;;;13.40;;
1414;SDS011;702;49.466;11.086;2022-12-11T11:08:41;18.80;;;12.73;;
1414;SDS011;702;49.466;11.086;2022-12-11T11:11:23;16.90;;;12.50;;
1414;SDS011;702;49.466;11.086;2022-12-11T11:14:03;21.70;;;13.20;;
1414;SDS011;702;49.466;11.086;2022-12-11T11:16:41;16.70;;;12.40;;
1414;SDS011;702;49.466;11.086;2022-12-11T11:19:15;18.33;;;11.60;;
1414;SDS011;702;49.466;11.086;2022-12-11T11:21:47;19.47;;;12.50;;
1414;SDS011;702;49.466;11.086;2022-12-11T11:24:20;15.13;;;11.23;;
1414;SDS011;702;49.466;11.086;2022-12-11T11:26:54;19.40;;;12.80;;
1414;SDS011;702;49.466;11.086;2022-12-11T11:29:24;18.17;;;13.10;;
1414;SDS011;702;49.466;11.086;2022-12-11T11:31:56;19.70;;;14.83;;
1414;SDS011;702;49.466;11.086;2022-12-11T11:34:40;22.60;;;15.70;;
1414;SDS011;702;49.466;11.086;2022-12-11T11:37:14;18.77;;;13.60;;
1414;SDS011;702;49.466;11.086;2022-12-11T11:39:51;20.40;;;13.87;;
1414;SDS011;702;49.466;11.086;2022-12-11T11:42:29;17.17;;;12.97;;
1414;SDS011;702;49.466;11.086;2022-12-11T11:45:08;21.20;;;13.03;;
1414;SDS011;702;49.466;11.086;2022-12-11T11:47:44;20.27;;;12.73;;
1414;SDS011;702;49.466;11.086;2022-12-11T11:50:21;18.17;;;12.47;;
1414;SDS011;702;49.466;11.086;2022-12-11T11:52:55;19.33;;;13.13;;
1414;SDS011;702;49.466;11.086;2022-12-11T11:55:31;18.33;;;13.03;;
1414;SDS011;702;49.466;11.086;2022-12-11T11:58:08;18.93;;;12.20;;
1414;SDS011;702;49.466;11.086;2022-12-11T12:00:41;21.30;;;13.20;;
1414;SDS011;702;49.466;11.086;2022-12-11T12:03:11;17.70;;;12.07;;
1414;SDS011;702;49.466;11.086;2022-12-11T12:05:42;15.07;;;10.53;;
1414;SDS011;702;49.466;11.086;2022-12-11T12:08:21;16.50;;;10.90;;
1414;SDS011;702;49.466;11.086;2022-12-11T12:11:06;17.13;;;11.60;;
1414;SDS011;702;49.466;11.086;2022-12-11T12:13:46;13.90;;;11.13;;
1414;SDS011;702;49.466;11.086;2022-12-11T12:16:24;16.87;;;10.70;;
1414;SDS011;702;49.466;11.086;2022-12-11T12:19:06;17.03;;;11.40;;
1414;SDS011;702;49.466;11.086;2022-12-11T12:21:45;16.70;;;11.10;;
1414;SDS011;702;49.466;11.086;2022-12-11T12:24:19;13.73;;;10.50;;
1414;SDS011;702;49.466;11.086;2022-12-11T12:27:00;14.93;;;10.87;;
1414;SDS011;702;49.466;11.086;2022-12-11T12:29:44;16.20;;;10.40;;
1414;SDS011;702;49.466;11.086;2022-12-11T12:32:24;15.60;;;10.70;;
1414;SDS011;702;49.466;11.086;2022-12-11T12:35:02;18.83;;;11.83;;
1414;SDS011;702;49.466;11.086;2022-12-11T12:37:50;19.83;;;11.47;;
1414;SDS011;702;49.466;11.086;2022-12-11T12:40:27;17.67;;;11.90;;
1414;SDS011;702;49.466;11.086;2022-12-11T12:43:01;17.73;;;11.90;;
1414;SDS011;702;49.466;11.086;2022-12-11T12:45:47;15.23;;;10.50;;
1414;SDS011;702;49.466;11.086;2022-12-11T12:48:25;14.40;;;10.83;;
1414;SDS011;702;49.466;11.086;2022-12-11T12:50:55;16.00;;;11.77;;
1414;SDS011;702;49.466;11.086;2022-12-11T12:53:23;14.07;;;10.57;;
1414;SDS011;702;49.466;11.086;2022-12-11T12:55:54;14.17;;;9.27;;
1414;SDS011;702;49.466;11.086;2022-12-11T12:58:23;13.67;;;10.13;;
1414;SDS011;702;49.466;11.086;2022-12-11T13:00:53;14.40;;;9.70;;
1414;SDS011;702;49.466;11.086;2022-12-11T13:03:34;18.63;;;12.20;;
1414;SDS011;702;49.466;11.086;2022-12-11T13:06:15;14.30;;;9.97;;
1414;SDS011;702;49.466;11.086;2022-12-11T13:08:54;15.33;;;10.13;;
1414;SDS011;702;49.466;11.086;2022-12-11T13:11:29;11.97;;;8.10;;
1414;SDS011;702;49.466;11.086;2022-12-11T13:14:01;13.40;;;9.40;;
1414;SDS011;702;49.466;11.086;2022-12-11T13:16:34;12.80;;;9.47;;
1414;SDS011;702;49.466;11.086;2022-12-11T13:19:03;15.77;;;10.07;;
1414;SDS011;702;49.466;11.086;2022-12-11T13:21:55;13.33;;;8.73;;
1414;SDS011;702;49.466;11.086;2022-12-11T13:24:25;15.03;;;9.30;;
1414;SDS011;702;49.466;11.086;2022-12-11T13:26:54;11.23;;;8.17;;
1414;SDS011;702;49.466;11.086;2022-12-11T13:29:32;11.70;;;8.13;;
1414;SDS011;702;49.466;11.086;2022-12-11T13:32:02;14.00;;;10.10;;
1414;SDS011;702;49.466;11.086;2022-12-11T13:34:50;13.07;;;9.63;;
1414;SDS011;702;49.466;11.086;2022-12-11T13:37:23;14.70;;;9.70;;
1414;SDS011;702;49.466;11.086;2022-12-11T13:39:54;15.63;;;9.57;;
1414;SDS011;702;49.466;11.086;2022-12-11T13:42:23;15.00;;;9.70;;
1414;SDS011;702;49.466;11.086;2022-12-11T13:44:57;10.27;;;7.60;;
1414;SDS011;702;49.466;11.086;2022-12-11T13:47:26;12.10;;;7.50;;
1414;SDS011;702;49.466;11.086;2022-12-11T13:49:59;11.77;;;7.50;;
1414;SDS011;702;49.466;11.086;2022-12-11T13:52:51;12.97;;;7.50;;
1414;SDS011;702;49.466;11.086;2022-12-11T13:55:21;11.80;;;7.87;;
1414;SDS011;702;49.466;11.086;2022-12-11T13:57:51;11.70;;;7.57;;
1414;SDS011;702;49.466;11.086;2022-12-11T14:00:19;12.27;;;7.83;;
1414;SDS011;702;49.466;11.086;2022-12-11T14:02:50;12.23;;;8.47;;
1414;SDS011;702;49.466;11.086;2022-12-11T14:05:19;9.63;;;7.40;;
1414;SDS011;702;49.466;11.086;2022-12-11T14:07:49;10.30;;;6.67;;
1414;SDS011;702;49.466;11.086;2022-12-11T14:10:21;10.20;;;7.27;;
1414;SDS011;702;49.466;11.086;2022-12-11T14:12:50;9.97;;;6.83;;
1414;SDS011;702;49.466;11.086;2022-12-11T14:15:22;12.00;;;7.50;;
1414;SDS011;702;49.466;11.086;2022-12-11T14:17:50;11.43;;;7.43;;
1414;SDS011;702;49.466;11.086;2022-12-11T14:20:19;11.70;;;7.70;;
1414;SDS011;702;49.466;11.086;2022-12-11T14:22:50;11.97;;;8.57;;
1414;SDS011;702;49.466;11.086;2022-12-11T14:25:19;13.10;;;8.70;;
1414;SDS011;702;49.466;11.086;2022-12-11T14:27:50;11.67;;;7.93;;
1414;SDS011;702;49.466;11.086;2022-12-11T14:30:19;13.10;;;8.50;;
1414;SDS011;702;49.466;11.086;2022-12-11T14:32:48;12.50;;;8.90;;
1414;SDS011;702;49.466;11.086;2022-12-11T14:35:20;15.37;;;9.00;;
1414;SDS011;702;49.466;11.086;2022-12-11T14:37:53;13.97;;;9.20;;
1414;SDS011;702;49.466;11.086;2022-12-11T14:40:21;12.67;;;8.40;;
1414;SDS011;702;49.466;11.086;2022-12-11T14:42:54;13.17;;;8.67;;
1414;SDS011;702;49.466;11.086;2022-12-11T14:45:27;11.50;;;7.60;;
1414;SDS011;702;49.466;11.086;2022-12-11T14:47:59;10.97;;;7.70;;
1414;SDS011;702;49.466;11.086;2022-12-11T14:50:35;12.10;;;9.63;;
1414;SDS011;702;49.466;11.086;2022-12-11T14:53:11;10.90;;;8.20;;
1414;SDS011;702;49.466;11.086;2022-12-11T14:55:41;14.80;;;8.87;;
1414;SDS011;702;49.466;11.086;2022-12-11T14:58:13;13.23;;;8.50;;
1414;SDS011;702;49.466;11.086;2022-12-11T15:00:43;11.80;;;7.90;;
1414;SDS011;702;49.466;11.086;2022-12-11T15:03:22;11.33;;;8.03;;
1414;SDS011;702;49.466;11.086;2022-12-11T15:05:52;14.70;;;10.07;;
1414;SDS011;702;49.466;11.086;2022-12-11T15:08:24;13.23;;;8.70;;
1414;SDS011;702;49.466;11.086;2022-12-11T15:10:57;13.27;;;9.00;;
1414;SDS011;702;49.466;11.086;2022-12-11T15:13:29;11.90;;;8.60;;